createdAt,value
2018-11-27T00:00:45.834Z,90.30
2018-11-27T00:03:14.433Z,90.20
2018-11-27T00:05:42.227Z,90.20
2018-11-27T00:08:13.866Z,90.20
2018-11-27T00:10:41.625Z,90.20
2018-11-27T00:13:09.331Z,90.20
2018-11-27T00:15:37.143Z,90.20
2018-11-27T00:18:04.933Z,90.30
2018-11-27T00:20:32.993Z,90.20
2018-11-27T00:23:00.666Z,90.20
2018-11-27T00:25:29.008Z,90.20
2018-11-27T00:27:56.714Z,90.10
2018-11-27T00:30:24.441Z,90.10
2018-11-27T00:32:52.159Z,90.10
2018-11-27T00:35:20.215Z,89.90
2018-11-27T00:37:47.965Z,89.40
2018-11-27T00:40:18.285Z,89.00
2018-11-27T00:42:46.019Z,89.40
2018-11-27T00:45:14.867Z,89.60
2018-11-27T00:47:43.459Z,89.40
2018-11-27T00:50:13.319Z,89.20
2018-11-27T00:52:41.064Z,88.40
2018-11-27T00:55:10.745Z,88.40
2018-11-27T00:57:39.019Z,88.40
2018-11-27T01:00:25.071Z,88.40
2018-11-27T01:02:52.807Z,88.10
2018-11-27T01:05:21.926Z,87.70
2018-11-27T01:07:50.403Z,87.30
2018-11-27T01:10:20.220Z,87.50
2018-11-27T01:12:48.031Z,87.50
2018-11-27T01:15:16.076Z,87.10
2018-11-27T01:17:47.030Z,87.50
2018-11-27T01:20:16.149Z,87.50
2018-11-27T01:22:43.986Z,88.10
2018-11-27T01:25:12.037Z,88.20
2018-11-27T01:27:39.787Z,88.10
2018-11-27T01:30:09.974Z,88.10
2018-11-27T01:32:37.744Z,87.50
2018-11-27T01:35:08.298Z,87.70
2018-11-27T01:37:36.051Z,87.70
2018-11-27T01:40:05.405Z,87.70
2018-11-27T01:42:33.181Z,87.70
2018-11-27T01:45:00.896Z,87.30
2018-11-27T01:47:28.616Z,87.70
2018-11-27T01:49:56.321Z,86.90
2018-11-27T01:52:24.025Z,87.50
2018-11-27T01:54:51.717Z,88.10
2018-11-27T01:57:20.043Z,88.20
2018-11-27T01:59:47.831Z,88.40
2018-11-27T02:02:15.594Z,88.60
2018-11-27T02:04:43.351Z,88.80
2018-11-27T02:07:11.046Z,88.80
2018-11-27T02:09:38.804Z,89.00
2018-11-27T02:12:06.515Z,89.00
2018-11-27T02:14:34.414Z,88.80
2018-11-27T02:17:02.157Z,89.00
2018-11-27T02:19:29.899Z,88.80
2018-11-27T02:21:57.662Z,88.80
2018-11-27T02:24:25.447Z,87.70
2018-11-27T02:26:53.147Z,87.50
2018-11-27T02:29:20.888Z,87.90
2018-11-27T02:31:55.342Z,87.70
2018-11-27T02:34:23.102Z,87.50
2018-11-27T02:36:50.797Z,87.70
2018-11-27T02:39:18.562Z,87.90
2018-11-27T02:41:46.309Z,88.40
2018-11-27T02:44:14.030Z,88.40
2018-11-27T02:46:41.781Z,88.60
2018-11-27T02:49:09.530Z,89.40
2018-11-27T02:51:37.278Z,89.90
2018-11-27T02:54:05.259Z,90.10
2018-11-27T02:56:33.589Z,90.10
2018-11-27T02:59:01.333Z,88.60
2018-11-27T03:01:29.031Z,88.80
2018-11-27T03:03:56.728Z,88.80
2018-11-27T03:06:24.882Z,89.20
2018-11-27T03:08:52.633Z,89.90
2018-11-27T03:11:20.303Z,90.10
2018-11-27T03:13:48.123Z,90.20
2018-11-27T03:16:15.869Z,90.20
2018-11-27T03:18:43.620Z,90.20
2018-11-27T03:21:11.477Z,90.10
2018-11-27T03:23:39.219Z,89.90
2018-11-27T03:26:06.977Z,89.90
2018-11-27T03:28:34.727Z,89.90
2018-11-27T03:31:02.421Z,89.60
2018-11-27T03:33:30.105Z,89.40
2018-11-27T03:35:57.820Z,89.40
2018-11-27T03:38:25.523Z,89.40
2018-11-27T03:40:53.285Z,89.40
2018-11-27T03:43:20.974Z,89.60
2018-11-27T03:45:48.751Z,89.60
2018-11-27T03:48:16.540Z,89.60
2018-11-27T03:50:44.270Z,89.20
2018-11-27T03:53:11.981Z,88.60
2018-11-27T03:55:39.697Z,88.20
2018-11-27T03:58:07.405Z,87.90
2018-11-27T04:00:35.111Z,87.70
2018-11-27T04:03:11.902Z,87.90
2018-11-27T04:05:40.243Z,87.70
2018-11-27T04:08:08.754Z,87.50
2018-11-27T04:10:37.012Z,87.90
2018-11-27T04:13:04.876Z,87.50
2018-11-27T04:15:32.663Z,87.70
2018-11-27T04:18:00.387Z,87.70
2018-11-27T04:20:28.152Z,87.90
2018-11-27T04:22:55.884Z,87.70
2018-11-27T04:25:23.681Z,87.30
2018-11-27T04:27:51.522Z,87.50
2018-11-27T04:30:20.219Z,87.70
2018-11-27T04:32:48.026Z,87.50
2018-11-27T04:35:16.974Z,88.20
2018-11-27T04:37:44.807Z,88.80
2018-11-27T04:40:14.431Z,89.00
2018-11-27T04:42:42.172Z,88.40
2018-11-27T04:45:15.516Z,88.40
2018-11-27T04:47:43.221Z,88.20
2018-11-27T04:50:13.108Z,88.10
2018-11-27T04:52:41.248Z,88.10
2018-11-27T04:55:12.042Z,88.10
2018-11-27T04:57:39.833Z,87.30
2018-11-27T05:00:10.654Z,87.30
2018-11-27T05:02:38.410Z,87.90
2018-11-27T05:05:06.791Z,87.90
2018-11-27T05:07:34.532Z,88.10
2018-11-27T05:10:02.716Z,88.10
2018-11-27T05:12:30.502Z,87.90
2018-11-27T05:14:58.199Z,87.50
2018-11-27T05:17:25.909Z,87.50
2018-11-27T05:19:53.650Z,87.50
2018-11-27T05:22:21.395Z,87.70
2018-11-27T05:24:49.159Z,87.50
2018-11-27T05:27:16.842Z,87.50
2018-11-27T05:29:44.607Z,87.50
2018-11-27T05:32:12.340Z,87.30
2018-11-27T05:34:40.084Z,87.30
2018-11-27T05:37:07.901Z,87.30
2018-11-27T05:39:35.623Z,87.10
2018-11-27T05:42:03.408Z,87.10
2018-11-27T05:44:31.160Z,87.10
2018-11-27T05:46:58.895Z,86.60
2018-11-27T05:49:26.628Z,86.40
2018-11-27T05:51:55.368Z,86.60
2018-11-27T05:54:23.069Z,86.80
2018-11-27T05:56:50.806Z,86.90
2018-11-27T05:59:18.946Z,87.10
2018-11-27T06:01:46.661Z,86.90
2018-11-27T06:04:14.389Z,87.10
2018-11-27T06:06:42.291Z,87.10
2018-11-27T06:09:10.619Z,86.80
2018-11-27T06:11:38.941Z,86.80
2018-11-27T06:14:06.666Z,86.90
2018-11-27T06:16:34.490Z,87.30
2018-11-27T06:19:02.794Z,87.10
2018-11-27T06:21:30.534Z,87.70
2018-11-27T06:23:58.266Z,87.30
2018-11-27T06:26:26.014Z,87.50
2018-11-27T06:28:53.739Z,87.70
2018-11-27T06:31:21.523Z,87.90
2018-11-27T06:33:49.215Z,88.10
2018-11-27T06:36:16.965Z,88.10
2018-11-27T06:38:44.661Z,88.60
2018-11-27T06:41:12.535Z,88.60
2018-11-27T06:43:40.328Z,89.20
2018-11-27T06:46:08.085Z,89.40
2018-11-27T06:48:35.830Z,89.70
2018-11-27T06:51:03.591Z,89.70
2018-11-27T06:53:31.331Z,89.90
2018-11-27T06:55:59.134Z,89.70
2018-11-27T06:58:26.871Z,89.60
2018-11-27T07:00:54.648Z,89.40
2018-11-27T07:03:22.386Z,89.40
2018-11-27T07:05:50.135Z,89.60
2018-11-27T07:08:17.926Z,89.40
2018-11-27T07:10:45.823Z,89.40
2018-11-27T07:13:16.758Z,89.00
2018-11-27T07:15:44.573Z,89.20
2018-11-27T07:18:12.278Z,89.40
2018-11-27T07:20:40.027Z,89.40
2018-11-27T07:23:07.773Z,89.20
2018-11-27T07:25:36.014Z,89.40
2018-11-27T07:28:03.792Z,89.40
2018-11-27T07:30:31.509Z,89.40
2018-11-27T07:32:59.835Z,89.00
2018-11-27T07:35:27.550Z,89.20
2018-11-27T07:37:55.266Z,89.00
2018-11-27T07:40:24.343Z,89.00
2018-11-27T07:42:54.259Z,89.20
2018-11-27T07:45:23.738Z,88.40
2018-11-27T07:47:51.537Z,88.60
2018-11-27T07:50:19.458Z,88.60
2018-11-27T07:52:47.267Z,88.60
2018-11-27T07:55:17.888Z,88.20
2018-11-27T07:57:45.718Z,88.10
2018-11-27T08:00:15.374Z,87.90
2018-11-27T08:02:49.615Z,87.90
2018-11-27T08:05:21.899Z,88.10
2018-11-27T08:07:51.914Z,88.10
2018-11-27T08:10:20.951Z,88.40
2018-11-27T08:12:48.678Z,88.40
2018-11-27T08:15:18.542Z,88.60
2018-11-27T08:17:46.246Z,88.60
2018-11-27T08:20:17.942Z,88.80
2018-11-27T08:22:45.892Z,88.80
2018-11-27T08:25:14.193Z,88.40
2018-11-27T08:27:41.955Z,88.40
2018-11-27T08:30:15.559Z,88.20
2018-11-27T08:32:43.490Z,88.10
2018-11-27T08:35:12.667Z,88.40
2018-11-27T08:37:40.665Z,88.20
2018-11-27T08:40:11.692Z,88.40
2018-11-27T08:42:39.466Z,88.40
2018-11-27T08:45:10.543Z,88.40
2018-11-27T08:47:38.283Z,88.10
2018-11-27T08:50:10.666Z,87.70
2018-11-27T08:52:38.420Z,87.70
2018-11-27T08:55:08.502Z,87.50
2018-11-27T08:57:36.275Z,87.30
2018-11-27T09:00:11.250Z,87.10
2018-11-27T09:02:38.974Z,87.30
2018-11-27T09:05:06.739Z,87.10
2018-11-27T09:07:34.627Z,87.50
2018-11-27T09:10:02.259Z,85.80
2018-11-27T09:12:29.974Z,85.80
2018-11-27T09:14:57.690Z,86.00
2018-11-27T09:17:25.461Z,85.60
2018-11-27T09:19:53.179Z,85.50
2018-11-27T09:22:20.944Z,84.30
2018-11-27T09:24:48.733Z,83.80
2018-11-27T09:27:16.462Z,84.30
2018-11-27T09:29:44.183Z,83.40
2018-11-27T09:32:12.010Z,83.40
2018-11-27T09:34:39.735Z,83.80
2018-11-27T09:37:07.499Z,82.80
2018-11-27T09:39:35.282Z,83.80
2018-11-27T09:42:03.015Z,83.80
2018-11-27T09:44:30.775Z,83.40
2018-11-27T09:46:58.492Z,82.50
2018-11-27T09:49:26.206Z,82.10
2018-11-27T09:51:53.970Z,81.40
2018-11-27T09:54:21.725Z,82.50
2018-11-27T09:56:49.564Z,82.50
2018-11-27T09:59:17.303Z,83.00
2018-11-27T10:01:45.258Z,81.90
2018-11-27T10:04:13.055Z,82.10
2018-11-27T10:06:40.854Z,82.50
2018-11-27T10:09:08.799Z,81.20
2018-11-27T10:11:36.509Z,80.80
2018-11-27T10:14:05.106Z,81.40
2018-11-27T10:16:33.355Z,78.60
2018-11-27T10:19:01.038Z,78.90
2018-11-27T10:21:28.742Z,78.70
2018-11-27T10:23:56.430Z,78.20
2018-11-27T10:26:24.125Z,76.90
2018-11-27T10:28:52.603Z,73.70
2018-11-27T10:31:20.322Z,74.80
2018-11-27T10:33:47.998Z,72.40
2018-11-27T10:36:15.847Z,73.20
2018-11-27T10:38:43.649Z,73.20
2018-11-27T10:41:12.207Z,73.30
2018-11-27T10:43:39.983Z,72.80
2018-11-27T10:46:07.744Z,72.60
2018-11-27T10:48:35.421Z,74.10
2018-11-27T10:51:03.173Z,72.20
2018-11-27T10:53:30.924Z,71.50
2018-11-27T10:55:58.662Z,71.80
2018-11-27T10:58:26.430Z,72.80
2018-11-27T11:00:59.882Z,73.50
2018-11-27T11:03:34.470Z,74.50
2018-11-27T11:06:03.311Z,72.40
2018-11-27T11:08:31.081Z,72.20
2018-11-27T11:10:58.755Z,72.40
2018-11-27T11:13:26.513Z,70.90
2018-11-27T11:15:54.218Z,70.90
2018-11-27T11:18:21.964Z,71.30
2018-11-27T11:20:49.737Z,70.90
2018-11-27T11:23:17.484Z,71.10
2018-11-27T11:25:45.212Z,69.10
2018-11-27T11:28:12.955Z,70.20
2018-11-27T11:30:40.747Z,70.70
2018-11-27T11:33:08.757Z,70.50
2018-11-27T11:35:36.539Z,70.00
2018-11-27T11:38:05.665Z,68.90
2018-11-27T11:40:33.360Z,69.20
2018-11-27T11:43:01.122Z,69.10
2018-11-27T11:45:28.860Z,69.20
2018-11-27T11:47:56.568Z,69.80
2018-11-27T11:50:27.178Z,68.70
2018-11-27T11:52:58.267Z,69.20
2018-11-27T11:55:25.995Z,68.30
2018-11-27T11:57:53.917Z,69.60
2018-11-27T12:00:25.711Z,70.00
2018-11-27T12:02:53.474Z,71.10
2018-11-27T12:05:24.983Z,71.30
2018-11-27T12:07:49.564Z,70.20
2018-11-27T12:10:17.337Z,70.20
2018-11-27T12:12:46.087Z,70.50
2018-11-27T12:15:15.668Z,70.20
2018-11-27T12:17:44.013Z,70.90
2018-11-27T12:20:13.694Z,72.60
2018-11-27T12:22:43.778Z,71.50
2018-11-27T12:25:12.407Z,70.00
2018-11-27T12:27:40.246Z,69.80
2018-11-27T12:30:17.371Z,70.20
2018-11-27T12:32:45.192Z,68.70
2018-11-27T12:35:13.684Z,67.40
2018-11-27T12:37:41.521Z,68.30
2018-11-27T12:40:12.468Z,68.30
2018-11-27T12:42:40.233Z,68.10
2018-11-27T12:45:09.878Z,65.90
2018-11-27T12:47:37.637Z,67.00
2018-11-27T12:50:11.224Z,66.80
2018-11-27T12:52:38.938Z,67.60
2018-11-27T12:55:08.742Z,66.10
2018-11-27T12:57:36.487Z,65.70
2018-11-27T13:00:09.252Z,66.80
2018-11-27T13:02:36.986Z,67.40
2018-11-27T13:05:05.313Z,67.60
2018-11-27T13:07:33.665Z,67.40
2018-11-27T13:10:02.959Z,68.70
2018-11-27T13:12:30.853Z,69.10
2018-11-27T13:14:58.584Z,70.00
2018-11-27T13:17:26.341Z,69.40
2018-11-27T13:19:54.120Z,69.20
2018-11-27T13:22:21.847Z,70.40
2018-11-27T13:24:50.246Z,70.50
2018-11-27T13:27:18.001Z,71.50
2018-11-27T13:29:45.787Z,70.50
2018-11-27T13:32:13.548Z,71.80
2018-11-27T13:34:46.419Z,72.00
2018-11-27T13:37:09.081Z,71.80
2018-11-27T13:39:37.672Z,72.60
2018-11-27T13:42:06.590Z,74.50
2018-11-27T13:44:34.400Z,76.30
2018-11-27T13:47:02.200Z,76.10
2018-11-27T13:49:29.978Z,77.80
2018-11-27T13:51:57.738Z,77.10
2018-11-27T13:54:25.510Z,77.60
2018-11-27T13:56:53.304Z,78.20
2018-11-27T13:59:21.023Z,78.40
2018-11-27T14:01:48.792Z,78.90
2018-11-27T14:04:16.514Z,79.30
2018-11-27T14:06:44.218Z,78.90
2018-11-27T14:09:11.948Z,78.70
2018-11-27T14:11:39.758Z,78.60
2018-11-27T14:14:07.519Z,78.20
2018-11-27T14:16:35.402Z,78.20
2018-11-27T14:19:03.213Z,79.10
2018-11-27T14:21:30.932Z,79.50
2018-11-27T14:23:59.243Z,79.70
2018-11-27T14:26:27.024Z,80.00
2018-11-27T14:28:54.737Z,80.40
2018-11-27T14:31:22.583Z,79.10
2018-11-27T14:33:50.342Z,79.50
2018-11-27T14:36:19.117Z,78.90
2018-11-27T14:38:46.855Z,79.30
2018-11-27T14:41:14.563Z,80.20
2018-11-27T14:43:42.388Z,79.50
2018-11-27T14:46:10.108Z,79.90
2018-11-27T14:48:37.884Z,80.40
2018-11-27T14:51:05.724Z,80.80
2018-11-27T14:53:33.458Z,80.40
2018-11-27T14:56:01.215Z,80.80
2018-11-27T14:58:28.992Z,80.40
2018-11-27T15:00:56.832Z,80.80
2018-11-27T15:03:24.662Z,80.80
2018-11-27T15:05:53.039Z,80.80
2018-11-27T15:08:20.798Z,81.00
2018-11-27T15:10:48.532Z,81.00
2018-11-27T15:13:16.289Z,81.00
2018-11-27T15:15:44.061Z,81.00
2018-11-27T15:18:11.849Z,80.60
2018-11-27T15:20:39.597Z,80.80
2018-11-27T15:23:07.386Z,81.20
2018-11-27T15:25:35.083Z,81.20
2018-11-27T15:28:02.904Z,80.80
2018-11-27T15:30:33.375Z,81.00
2018-11-27T15:33:01.142Z,80.80
2018-11-27T15:35:28.898Z,80.60
2018-11-27T15:37:56.626Z,81.00
2018-11-27T15:40:26.126Z,81.40
2018-11-27T15:42:54.506Z,81.90
2018-11-27T15:45:24.543Z,82.10
2018-11-27T15:47:53.147Z,81.50
2018-11-27T15:50:20.917Z,82.10
2018-11-27T15:52:48.734Z,82.10
2018-11-27T15:55:27.769Z,81.70
2018-11-27T15:57:59.738Z,81.40
2018-11-27T16:00:27.498Z,81.40
2018-11-27T16:02:55.261Z,81.40
2018-11-27T16:05:23.000Z,81.50
2018-11-27T16:07:51.562Z,81.70
2018-11-27T16:10:19.484Z,81.70
2018-11-27T16:12:47.258Z,82.10
2018-11-27T16:15:17.366Z,81.90
2018-11-27T16:17:45.274Z,81.70
2018-11-27T16:20:15.254Z,81.70
2018-11-27T16:22:45.563Z,82.30
2018-11-27T16:25:15.796Z,82.50
2018-11-27T16:27:43.711Z,82.30
2018-11-27T16:30:27.867Z,82.50
2018-11-27T16:32:55.706Z,82.50
2018-11-27T16:35:23.841Z,82.10
2018-11-27T16:37:53.784Z,82.80
2018-11-27T16:40:23.157Z,83.00
2018-11-27T16:42:50.962Z,83.20
2018-11-27T16:45:20.520Z,82.80
2018-11-27T16:47:48.893Z,83.00
2018-11-27T16:50:17.340Z,83.40
2018-11-27T16:52:45.654Z,83.20
2018-11-27T16:55:18.299Z,83.20
2018-11-27T16:57:46.070Z,82.80
2018-11-27T17:00:17.943Z,82.50
2018-11-27T17:02:46.243Z,82.80
2018-11-27T17:05:15.097Z,83.00
2018-11-27T17:07:42.841Z,83.80
2018-11-27T17:10:11.880Z,84.10
2018-11-27T17:12:39.632Z,83.80
2018-11-27T17:15:10.464Z,83.20
2018-11-27T17:17:38.353Z,82.80
2018-11-27T17:20:10.346Z,83.20
2018-11-27T17:22:38.094Z,83.80
2018-11-27T17:25:06.655Z,84.30
2018-11-27T17:27:34.396Z,84.90
2018-11-27T17:30:02.252Z,84.70
2018-11-27T17:32:30.681Z,84.90
2018-11-27T17:34:58.433Z,85.10
2018-11-27T17:37:26.220Z,85.10
2018-11-27T17:39:53.988Z,84.90
2018-11-27T17:42:21.675Z,84.90
2018-11-27T17:44:49.537Z,84.90
2018-11-27T17:47:17.276Z,84.70
2018-11-27T17:49:45.048Z,84.70
2018-11-27T17:52:12.824Z,85.10
2018-11-27T17:54:40.608Z,84.70
2018-11-27T17:57:08.476Z,84.50
2018-11-27T17:59:36.236Z,84.10
2018-11-27T18:02:04.079Z,84.10
2018-11-27T18:04:31.850Z,84.30
2018-11-27T18:06:59.616Z,84.70
2018-11-27T18:09:27.379Z,85.10
2018-11-27T18:11:55.190Z,84.50
2018-11-27T18:14:23.869Z,84.70
2018-11-27T18:16:51.653Z,84.70
2018-11-27T18:19:19.401Z,84.50
2018-11-27T18:21:47.193Z,84.30
2018-11-27T18:24:17.532Z,84.50
2018-11-27T18:26:45.315Z,84.30
2018-11-27T18:29:13.055Z,84.70
2018-11-27T18:31:40.810Z,84.70
2018-11-27T18:34:08.625Z,84.90
2018-11-27T18:36:36.446Z,84.70
2018-11-27T18:39:07.949Z,84.70
2018-11-27T18:41:35.748Z,85.10
2018-11-27T18:44:03.875Z,85.50
2018-11-27T18:46:31.737Z,85.80
2018-11-27T18:48:59.682Z,86.00
2018-11-27T18:51:27.500Z,86.00
2018-11-27T18:53:55.354Z,85.30
2018-11-27T18:56:24.067Z,85.10
2018-11-27T18:58:51.812Z,85.30
2018-11-27T19:01:19.551Z,85.80
2018-11-27T19:03:47.403Z,86.20
2018-11-27T19:06:15.306Z,86.40
2018-11-27T19:08:43.219Z,86.90
2018-11-27T19:11:11.100Z,87.50
2018-11-27T19:13:38.826Z,87.70
2018-11-27T19:16:06.902Z,87.70
2018-11-27T19:18:34.762Z,87.50
2018-11-27T19:21:02.575Z,86.90
2018-11-27T19:23:30.362Z,86.80
2018-11-27T19:25:58.207Z,86.90
2018-11-27T19:28:26.013Z,87.10
2018-11-27T19:30:53.758Z,86.90
2018-11-27T19:33:21.513Z,86.90
2018-11-27T19:35:49.894Z,86.80
2018-11-27T19:38:18.710Z,86.80
2018-11-27T19:40:46.508Z,86.80
2018-11-27T19:43:14.395Z,86.60
2018-11-27T19:45:42.297Z,86.00
2018-11-27T19:48:10.842Z,86.00
2018-11-27T19:50:38.826Z,86.40
2018-11-27T19:53:11.993Z,86.80
2018-11-27T19:55:36.524Z,87.10
2018-11-27T19:58:05.284Z,87.50
2018-11-27T20:00:33.181Z,87.70
2018-11-27T20:03:01.049Z,87.30
2018-11-27T20:05:29.667Z,87.50
2018-11-27T20:07:57.533Z,87.70
2018-11-27T20:10:25.321Z,87.90
2018-11-27T20:12:53.141Z,87.90
2018-11-27T20:15:22.321Z,88.10
2018-11-27T20:17:50.834Z,88.20
2018-11-27T20:20:20.094Z,88.20
2018-11-27T20:22:47.918Z,88.20
2018-11-27T20:25:16.986Z,88.40
2018-11-27T20:27:45.834Z,88.20
2018-11-27T20:30:18.743Z,88.20
2018-11-27T20:32:52.715Z,88.20
2018-11-27T20:35:20.480Z,87.90
2018-11-27T20:37:49.565Z,87.70
2018-11-27T20:40:18.262Z,87.70
2018-11-27T20:42:46.076Z,87.70
2018-11-27T20:45:19.330Z,87.90
2018-11-27T20:47:43.906Z,88.10
2018-11-27T20:50:14.568Z,88.10
2018-11-27T20:52:42.425Z,87.90
2018-11-27T20:55:10.170Z,88.10
2018-11-27T20:57:38.198Z,87.70
2018-11-27T21:00:10.387Z,87.90
2018-11-27T21:02:38.255Z,87.90
2018-11-27T21:05:06.352Z,87.70
2018-11-27T21:07:34.153Z,88.10
2018-11-27T21:10:02.275Z,88.20
2018-11-27T21:12:30.101Z,88.10
2018-11-27T21:14:57.855Z,88.60
2018-11-27T21:17:25.623Z,88.80
2018-11-27T21:19:53.408Z,89.00
2018-11-27T21:22:21.251Z,89.00
2018-11-27T21:24:49.523Z,89.60
2018-11-27T21:27:17.589Z,90.10
2018-11-27T21:29:46.384Z,90.20
2018-11-27T21:32:14.206Z,90.10
2018-11-27T21:34:42.026Z,90.10
2018-11-27T21:37:09.884Z,89.40
2018-11-27T21:39:37.795Z,89.60
2018-11-27T21:42:05.725Z,89.20
2018-11-27T21:44:33.519Z,89.40
2018-11-27T21:47:01.283Z,90.10
2018-11-27T21:49:29.118Z,90.20
2018-11-27T21:51:56.952Z,90.60
2018-11-27T21:54:24.867Z,90.80
2018-11-27T21:56:52.722Z,91.00
2018-11-27T21:59:20.473Z,91.30
2018-11-27T22:01:48.247Z,91.40
2018-11-27T22:04:15.965Z,91.70
2018-11-27T22:06:43.729Z,91.90
2018-11-27T22:09:11.564Z,91.90
2018-11-27T22:11:39.250Z,92.00
2018-11-27T22:14:07.060Z,92.10
2018-11-27T22:16:34.796Z,92.00
2018-11-27T22:19:02.627Z,91.80
2018-11-27T22:21:30.403Z,91.40
2018-11-27T22:23:58.152Z,91.10
2018-11-27T22:26:25.896Z,90.70
2018-11-27T22:28:53.657Z,90.90
2018-11-27T22:31:21.468Z,90.90
2018-11-27T22:33:49.324Z,90.70
2018-11-27T22:36:17.111Z,90.70
2018-11-27T22:38:44.818Z,90.90
2018-11-27T22:41:12.607Z,90.90
2018-11-27T22:43:40.337Z,90.90
2018-11-27T22:46:08.067Z,90.80
2018-11-27T22:48:35.799Z,90.60
2018-11-27T22:51:03.648Z,90.80
2018-11-27T22:53:31.404Z,90.40
2018-11-27T22:56:00.307Z,89.70
2018-11-27T22:58:26.868Z,89.90
2018-11-27T23:00:54.582Z,90.10
2018-11-27T23:03:22.331Z,90.10
2018-11-27T23:05:50.104Z,89.90
2018-11-27T23:08:17.863Z,89.90
2018-11-27T23:10:46.594Z,90.10
2018-11-27T23:13:14.422Z,90.10
2018-11-27T23:15:42.292Z,90.10
2018-11-27T23:18:10.072Z,89.60
2018-11-27T23:20:37.889Z,89.00
2018-11-27T23:23:05.734Z,88.60
2018-11-27T23:25:34.282Z,88.20
2018-11-27T23:28:02.188Z,88.60
2018-11-27T23:30:29.959Z,89.00
2018-11-27T23:32:57.689Z,88.60
2018-11-27T23:35:25.561Z,88.80
2018-11-27T23:37:53.495Z,88.60
2018-11-27T23:40:21.805Z,88.40
2018-11-27T23:42:49.906Z,88.40
2018-11-27T23:45:20.517Z,88.10
2018-11-27T23:47:48.524Z,88.10
2018-11-27T23:50:18.595Z,88.40
2018-11-27T23:52:46.531Z,89.00
2018-11-27T23:55:15.020Z,89.60
2018-11-27T23:57:43.039Z,89.60
